Astley, United Kingdom
Current Conditions -  °F | °C
As of 11:50 AM on Thursday 27 Nov 2014 (Local Time) from EGCC Reporting Station
Broken Clouds Broken Clouds  
Wind Chill:   Ceiling: 900
Heat Index:   Visibility: 4mi
Dew Point:   Wind: 5mph
Humidity: 100%   Direction: 170°S
Pressure: 29.59"   Gusts: NA
Location:  53.5°N, 2.46°W
Report Text: EGCC 271150Z 17004KT 7000 FEW004 BKN009 08/08 Q1002
Loading
Personal Weather Stations






























Interactive Weather Map New forecast layout! Learn more

10-Day Weather Forecast

Advertisements
Track Severe Weather on mobile